sensor_id;sensor_type;location;lat;lon;timestamp;temperature;humidity
55711;DHT22;41612;51.994;5.880;2022-12-10T02:33:27;-3276.10;86.50
55711;DHT22;41612;51.994;5.880;2022-12-10T02:35:55;-3276.10;86.50
55711;DHT22;41612;51.994;5.880;2022-12-10T02:38:27;-3276.10;86.50
55711;DHT22;41612;51.994;5.880;2022-12-10T02:41:00;-3276.10;86.40
55711;DHT22;41612;51.994;5.880;2022-12-10T02:43:29;-3276.10;86.40
55711;DHT22;41612;51.994;5.880;2022-12-10T02:46:00;-3276.10;86.40
55711;DHT22;41612;51.994;5.880;2022-12-10T02:48:29;-3276.10;86.40
55711;DHT22;41612;51.994;5.880;2022-12-10T02:50:56;-3276.10;86.40
55711;DHT22;41612;51.994;5.880;2022-12-10T02:53:22;-3276.10;86.40
55711;DHT22;41612;51.994;5.880;2022-12-10T02:56:12;-3276.00;86.30
55711;DHT22;41612;51.994;5.880;2022-12-10T02:59:11;-3276.00;86.40
55711;DHT22;41612;51.994;5.880;2022-12-10T03:04:45;-3276.10;86.30
55711;DHT22;41612;51.994;5.880;2022-12-10T03:07:22;-3276.00;86.40
55711;DHT22;41612;51.994;5.880;2022-12-10T03:09:53;-3276.00;86.40
55711;DHT22;41612;51.994;5.880;2022-12-10T03:12:32;-3276.10;86.70
55711;DHT22;41612;51.994;5.880;2022-12-10T03:15:00;-3276.00;86.50
55711;DHT22;41612;51.994;5.880;2022-12-10T03:17:29;-3276.00;86.50
55711;DHT22;41612;51.994;5.880;2022-12-10T03:19:58;-3276.00;86.70
55711;DHT22;41612;51.994;5.880;2022-12-10T03:22:24;-3276.00;86.60
55711;DHT22;41612;51.994;5.880;2022-12-10T03:24:50;-3276.00;86.70
55711;DHT22;41612;51.994;5.880;2022-12-10T03:27:19;-3276.00;86.60
55711;DHT22;41612;51.994;5.880;2022-12-10T03:29:50;-3276.00;86.40
55711;DHT22;41612;51.994;5.880;2022-12-10T03:32:17;-3276.00;86.30
55711;DHT22;41612;51.994;5.880;2022-12-10T03:34:43;-3276.00;86.40
55711;DHT22;41612;51.994;5.880;2022-12-10T03:37:10;-3275.90;86.40
55711;DHT22;41612;51.994;5.880;2022-12-10T03:39:37;-3276.00;86.40
55711;DHT22;41612;51.994;5.880;2022-12-10T03:42:04;-3276.00;86.50
55711;DHT22;41612;51.994;5.880;2022-12-10T03:44:36;-3275.90;86.40
55711;DHT22;41612;51.994;5.880;2022-12-10T03:47:04;-3275.90;86.40
55711;DHT22;41612;51.994;5.880;2022-12-10T03:49:30;-3275.90;86.30
55711;DHT22;41612;51.994;5.880;2022-12-10T03:51:56;-3275.90;86.40
55711;DHT22;41612;51.994;5.880;2022-12-10T03:54:22;-3275.90;86.50
55711;DHT22;41612;51.994;5.880;2022-12-10T03:56:48;-3275.90;86.30
55711;DHT22;41612;51.994;5.880;2022-12-10T03:59:14;-3275.90;86.40
55711;DHT22;41612;51.994;5.880;2022-12-10T04:01:40;-3275.80;86.50
55711;DHT22;41612;51.994;5.880;2022-12-10T04:04:06;-3275.90;86.60
55711;DHT22;41612;51.994;5.880;2022-12-10T04:06:33;-3275.90;86.50
55711;DHT22;41612;51.994;5.880;2022-12-10T04:08:58;-3275.90;86.60
55711;DHT22;41612;51.994;5.880;2022-12-10T04:11:24;-3275.90;86.60
55711;DHT22;41612;51.994;5.880;2022-12-10T04:13:50;-3276.00;86.60
55711;DHT22;41612;51.994;5.880;2022-12-10T04:16:35;-3276.00;86.60
55711;DHT22;41612;51.994;5.880;2022-12-10T04:19:06;-3276.10;86.80
55711;DHT22;41612;51.994;5.880;2022-12-10T04:21:33;-3276.20;86.80
55711;DHT22;41612;51.994;5.880;2022-12-10T04:24:24;-3276.20;86.70
55711;DHT22;41612;51.994;5.880;2022-12-10T04:27:24;-3276.20;86.60
55711;DHT22;41612;51.994;5.880;2022-12-10T04:29:50;-3276.20;86.50
55711;DHT22;41612;51.994;5.880;2022-12-10T04:32:17;-3276.30;86.60
55711;DHT22;41612;51.994;5.880;2022-12-10T04:34:43;-3276.30;86.50
55711;DHT22;41612;51.994;5.880;2022-12-10T04:37:09;-3276.30;86.50
55711;DHT22;41612;51.994;5.880;2022-12-10T04:39:37;-3276.30;86.50
55711;DHT22;41612;51.994;5.880;2022-12-10T04:42:03;-3276.30;86.50
55711;DHT22;41612;51.994;5.880;2022-12-10T04:44:30;-3276.30;86.40
55711;DHT22;41612;51.994;5.880;2022-12-10T04:46:56;-3276.30;86.30
55711;DHT22;41612;51.994;5.880;2022-12-10T04:49:22;-3276.20;86.40
55711;DHT22;41612;51.994;5.880;2022-12-10T04:51:48;-3276.20;86.40
55711;DHT22;41612;51.994;5.880;2022-12-10T04:54:14;-3276.30;86.40
55711;DHT22;41612;51.994;5.880;2022-12-10T04:56:40;-3276.20;86.40
55711;DHT22;41612;51.994;5.880;2022-12-10T04:59:06;-3276.20;86.50
55711;DHT22;41612;51.994;5.880;2022-12-10T05:01:32;-3276.20;86.50
55711;DHT22;41612;51.994;5.880;2022-12-10T05:04:03;-3276.20;86.50
55711;DHT22;41612;51.994;5.880;2022-12-10T05:06:29;-3276.10;86.60
55711;DHT22;41612;51.994;5.880;2022-12-10T05:08:55;-3276.20;86.70
55711;DHT22;41612;51.994;5.880;2022-12-10T05:11:22;-3276.20;86.80
55711;DHT22;41612;51.994;5.880;2022-12-10T05:13:48;-3276.20;86.80
55711;DHT22;41612;51.994;5.880;2022-12-10T05:16:16;-3276.10;86.70
55711;DHT22;41612;51.994;5.880;2022-12-10T05:18:42;-3276.10;86.60
55711;DHT22;41612;51.994;5.880;2022-12-10T05:21:14;-3276.10;86.70
55711;DHT22;41612;51.994;5.880;2022-12-10T05:23:43;-3276.10;86.70
55711;DHT22;41612;51.994;5.880;2022-12-10T05:26:10;-3276.10;86.70
55711;DHT22;41612;51.994;5.880;2022-12-10T05:28:38;-3276.10;86.90
55711;DHT22;41612;51.994;5.880;2022-12-10T05:31:05;-3276.10;87.00
55711;DHT22;41612;51.994;5.880;2022-12-10T05:33:31;-3276.10;86.80
55711;DHT22;41612;51.994;5.880;2022-12-10T05:35:59;-3276.20;86.80
55711;DHT22;41612;51.994;5.880;2022-12-10T05:38:26;-3276.20;86.70
55711;DHT22;41612;51.994;5.880;2022-12-10T05:41:01;-3276.00;86.60
55711;DHT22;41612;51.994;5.880;2022-12-10T05:43:27;-3276.00;86.80
55711;DHT22;41612;51.994;5.880;2022-12-10T05:45:52;-3275.90;87.10
55711;DHT22;41612;51.994;5.880;2022-12-10T05:48:18;-3275.90;87.20
55711;DHT22;41612;51.994;5.880;2022-12-10T05:50:44;-3275.90;87.30
55711;DHT22;41612;51.994;5.880;2022-12-10T05:53:10;-3275.80;87.30
55711;DHT22;41612;51.994;5.880;2022-12-10T05:55:39;-3275.80;87.60
55711;DHT22;41612;51.994;5.880;2022-12-10T05:58:05;-3275.80;87.50
55711;DHT22;41612;51.994;5.880;2022-12-10T06:00:30;-3275.80;87.60
55711;DHT22;41612;51.994;5.880;2022-12-10T06:02:56;-3275.80;87.70
55711;DHT22;41612;51.994;5.880;2022-12-10T06:05:22;-3275.90;87.80
55711;DHT22;41612;51.994;5.880;2022-12-10T06:07:48;-3275.90;87.60
55711;DHT22;41612;51.994;5.880;2022-12-10T06:10:13;-3275.90;87.40
55711;DHT22;41612;51.994;5.880;2022-12-10T06:12:39;-3275.90;87.40
55711;DHT22;41612;51.994;5.880;2022-12-10T06:15:05;-3275.90;87.50
55711;DHT22;41612;51.994;5.880;2022-12-10T06:17:32;-3275.90;87.60
55711;DHT22;41612;51.994;5.880;2022-12-10T06:19:58;-3275.90;87.60
55711;DHT22;41612;51.994;5.880;2022-12-10T06:22:23;-3275.90;87.60
55711;DHT22;41612;51.994;5.880;2022-12-10T06:24:49;-3275.90;87.70
55711;DHT22;41612;51.994;5.880;2022-12-10T06:27:15;-3275.90;87.80
55711;DHT22;41612;51.994;5.880;2022-12-10T06:29:41;-3275.90;87.80
55711;DHT22;41612;51.994;5.880;2022-12-10T06:32:07;-3275.90;87.80
55711;DHT22;41612;51.994;5.880;2022-12-10T06:34:33;-3275.90;87.80
55711;DHT22;41612;51.994;5.880;2022-12-10T06:36:59;-3275.90;87.80
55711;DHT22;41612;51.994;5.880;2022-12-10T06:39:24;-3275.90;87.70
55711;DHT22;41612;51.994;5.880;2022-12-10T06:41:50;-3275.90;87.70
55711;DHT22;41612;51.994;5.880;2022-12-10T06:44:17;-3275.90;87.70
55711;DHT22;41612;51.994;5.880;2022-12-10T06:46:42;-3275.80;87.60
55711;DHT22;41612;51.994;5.880;2022-12-10T06:49:08;-3275.80;87.50
55711;DHT22;41612;51.994;5.880;2022-12-10T06:51:34;-3275.80;87.60
55711;DHT22;41612;51.994;5.880;2022-12-10T06:54:00;-3275.90;87.70
55711;DHT22;41612;51.994;5.880;2022-12-10T06:56:26;-3275.90;87.70
55711;DHT22;41612;51.994;5.880;2022-12-10T06:58:52;-3276.00;87.80
55711;DHT22;41612;51.994;5.880;2022-12-10T07:01:23;-3276.00;87.60
55711;DHT22;41612;51.994;5.880;2022-12-10T07:03:56;-3276.00;87.70
55711;DHT22;41612;51.994;5.880;2022-12-10T07:06:22;-3276.00;87.60
55711;DHT22;41612;51.994;5.880;2022-12-10T07:08:49;-3275.90;87.50
55711;DHT22;41612;51.994;5.880;2022-12-10T07:11:18;-3275.90;87.60
55711;DHT22;41612;51.994;5.880;2022-12-10T07:13:44;-3275.90;87.60
55711;DHT22;41612;51.994;5.880;2022-12-10T07:16:15;-3275.80;87.50
55711;DHT22;41612;51.994;5.880;2022-12-10T07:18:41;-3275.80;87.40
55711;DHT22;41612;51.994;5.880;2022-12-10T07:23:47;-3275.80;87.40
55711;DHT22;41612;51.994;5.880;2022-12-10T07:26:13;-3275.80;87.40
55711;DHT22;41612;51.994;5.880;2022-12-10T07:28:39;-3275.80;87.50
55711;DHT22;41612;51.994;5.880;2022-12-10T07:31:07;-3275.80;87.60
55711;DHT22;41612;51.994;5.880;2022-12-10T07:33:33;-3275.80;87.70
55711;DHT22;41612;51.994;5.880;2022-12-10T07:35:59;-3275.80;87.80
55711;DHT22;41612;51.994;5.880;2022-12-10T07:38:30;-3275.70;87.60
55711;DHT22;41612;51.994;5.880;2022-12-10T07:40:56;-3275.70;87.50
55711;DHT22;41612;51.994;5.880;2022-12-10T07:43:22;-3275.60;87.60
55711;DHT22;41612;51.994;5.880;2022-12-10T07:45:47;-3275.60;87.70
55711;DHT22;41612;51.994;5.880;2022-12-10T07:48:16;-3275.60;87.70
55711;DHT22;41612;51.994;5.880;2022-12-10T07:50:42;-3275.60;87.80
55711;DHT22;41612;51.994;5.880;2022-12-10T07:53:07;-3275.60;87.90
55711;DHT22;41612;51.994;5.880;2022-12-10T07:55:33;-3275.70;87.90
55711;DHT22;41612;51.994;5.880;2022-12-10T07:57:59;-3275.70;87.70
55711;DHT22;41612;51.994;5.880;2022-12-10T08:00:24;-3275.70;87.90
55711;DHT22;41612;51.994;5.880;2022-12-10T08:02:50;-3275.80;87.90
55711;DHT22;41612;51.994;5.880;2022-12-10T08:05:16;-3275.80;87.80
55711;DHT22;41612;51.994;5.880;2022-12-10T08:07:42;-3275.90;87.70
55711;DHT22;41612;51.994;5.880;2022-12-10T08:10:12;-3276.00;87.70
55711;DHT22;41612;51.994;5.880;2022-12-10T08:12:37;-3276.00;87.80
55711;DHT22;41612;51.994;5.880;2022-12-10T08:15:03;-3276.00;87.70
55711;DHT22;41612;51.994;5.880;2022-12-10T08:17:29;-3276.00;87.60
55711;DHT22;41612;51.994;5.880;2022-12-10T08:19:55;-3275.90;87.70
55711;DHT22;41612;51.994;5.880;2022-12-10T08:22:21;-3275.90;87.70
55711;DHT22;41612;51.994;5.880;2022-12-10T08:24:47;-3276.00;87.90
55711;DHT22;41612;51.994;5.880;2022-12-10T08:27:12;-3276.10;88.10
55711;DHT22;41612;51.994;5.880;2022-12-10T08:29:38;-3276.10;87.90
55711;DHT22;41612;51.994;5.880;2022-12-10T08:32:04;-3276.10;87.70
55711;DHT22;41612;51.994;5.880;2022-12-10T08:34:30;-3276.10;87.70
55711;DHT22;41612;51.994;5.880;2022-12-10T08:36:55;-3276.10;87.70
55711;DHT22;41612;51.994;5.880;2022-12-10T08:39:21;-3276.20;87.60
55711;DHT22;41612;51.994;5.880;2022-12-10T08:41:47;-3276.20;87.60
55711;DHT22;41612;51.994;5.880;2022-12-10T08:44:13;-3276.20;87.70
55711;DHT22;41612;51.994;5.880;2022-12-10T08:46:39;-3276.30;87.80
55711;DHT22;41612;51.994;5.880;2022-12-10T08:49:05;-3276.30;87.60
55711;DHT22;41612;51.994;5.880;2022-12-10T08:51:32;-3276.30;87.40
55711;DHT22;41612;51.994;5.880;2022-12-10T08:53:58;-3276.30;87.20
55711;DHT22;41612;51.994;5.880;2022-12-10T08:56:26;-3276.30;87.30
55711;DHT22;41612;51.994;5.880;2022-12-10T08:58:52;-3276.30;87.40
55711;DHT22;41612;51.994;5.880;2022-12-10T09:01:18;-3276.40;87.40
55711;DHT22;41612;51.994;5.880;2022-12-10T09:03:44;-3276.40;87.40
55711;DHT22;41612;51.994;5.880;2022-12-10T09:06:14;-3276.40;87.30
55711;DHT22;41612;51.994;5.880;2022-12-10T09:08:40;-3276.40;87.30
55711;DHT22;41612;51.994;5.880;2022-12-10T09:11:18;-3276.50;87.20
55711;DHT22;41612;51.994;5.880;2022-12-10T09:13:48;-3276.60;87.10
55711;DHT22;41612;51.994;5.880;2022-12-10T09:16:14;-3276.60;86.80
55711;DHT22;41612;51.994;5.880;2022-12-10T09:18:40;-3276.50;86.80
55711;DHT22;41612;51.994;5.880;2022-12-10T09:21:07;-3276.50;86.80
55711;DHT22;41612;51.994;5.880;2022-12-10T09:23:33;-3276.50;86.90
55711;DHT22;41612;51.994;5.880;2022-12-10T09:26:01;-3276.60;87.00
55711;DHT22;41612;51.994;5.880;2022-12-10T09:28:26;-3276.50;86.90
55711;DHT22;41612;51.994;5.880;2022-12-10T09:30:57;-3276.40;87.00
55711;DHT22;41612;51.994;5.880;2022-12-10T09:33:24;-3276.40;87.20
55711;DHT22;41612;51.994;5.880;2022-12-10T09:36:01;-3276.40;87.20
55711;DHT22;41612;51.994;5.880;2022-12-10T09:38:38;-3276.40;87.20
55711;DHT22;41612;51.994;5.880;2022-12-10T09:41:20;-3276.40;87.10
55711;DHT22;41612;51.994;5.880;2022-12-10T09:44:07;-3276.50;87.30
55711;DHT22;41612;51.994;5.880;2022-12-10T09:46:51;-3276.50;87.20
55711;DHT22;41612;51.994;5.880;2022-12-10T09:52:12;-3276.50;87.10
55711;DHT22;41612;51.994;5.880;2022-12-10T09:54:46;-3276.50;87.00
55711;DHT22;41612;51.994;5.880;2022-12-10T09:57:23;-3276.40;87.10
55711;DHT22;41612;51.994;5.880;2022-12-10T09:59:52;-3276.40;87.30
55711;DHT22;41612;51.994;5.880;2022-12-10T10:02:32;-3276.40;87.40
55711;DHT22;41612;51.994;5.880;2022-12-10T10:05:08;-3276.60;87.60
55711;DHT22;41612;51.994;5.880;2022-12-10T10:07:41;-3276.60;87.40
55711;DHT22;41612;51.994;5.880;2022-12-10T10:10:23;-3276.70;87.10
55711;DHT22;41612;51.994;5.880;2022-12-10T10:12:52;-3276.70;87.00
55711;DHT22;41612;51.994;5.880;2022-12-10T10:15:25;-3276.60;87.00
55711;DHT22;41612;51.994;5.880;2022-12-10T10:17:54;-3276.70;87.00
55711;DHT22;41612;51.994;5.880;2022-12-10T10:20:21;-3276.70;86.90
55711;DHT22;41612;51.994;5.880;2022-12-10T10:22:47;-3276.70;86.90
55711;DHT22;41612;51.994;5.880;2022-12-10T10:25:20;-3276.70;86.80
55711;DHT22;41612;51.994;5.880;2022-12-10T10:27:46;-3276.70;86.90
55711;DHT22;41612;51.994;5.880;2022-12-10T10:30:19;-3276.70;87.00
55711;DHT22;41612;51.994;5.880;2022-12-10T10:32:55;-3276.70;86.90
55711;DHT22;41612;51.994;5.880;2022-12-10T10:35:30;-3276.70;87.00
55711;DHT22;41612;51.994;5.880;2022-12-10T10:38:07;0.00;87.00
55711;DHT22;41612;51.994;5.880;2022-12-10T10:40:39;0.00;86.90
55711;DHT22;41612;51.994;5.880;2022-12-10T10:43:24;0.00;87.00
55711;DHT22;41612;51.994;5.880;2022-12-10T10:45:58;0.00;86.90
55711;DHT22;41612;51.994;5.880;2022-12-10T10:48:27;0.00;86.80
55711;DHT22;41612;51.994;5.880;2022-12-10T10:50:57;0.00;86.70
55711;DHT22;41612;51.994;5.880;2022-12-10T10:53:51;0.00;86.70
55711;DHT22;41612;51.994;5.880;2022-12-10T10:58:58;0.10;86.70
55711;DHT22;41612;51.994;5.880;2022-12-10T11:01:27;0.10;86.70
55711;DHT22;41612;51.994;5.880;2022-12-10T11:04:08;0.20;86.50
55711;DHT22;41612;51.994;5.880;2022-12-10T11:06:34;0.20;86.50
55711;DHT22;41612;51.994;5.880;2022-12-10T11:09:01;0.20;86.30
55711;DHT22;41612;51.994;5.880;2022-12-10T11:11:34;0.20;86.40
55711;DHT22;41612;51.994;5.880;2022-12-10T11:14:26;0.20;86.40
55711;DHT22;41612;51.994;5.880;2022-12-10T11:19:42;0.20;86.60
55711;DHT22;41612;51.994;5.880;2022-12-10T11:22:21;0.20;86.60
55711;DHT22;41612;51.994;5.880;2022-12-10T11:24:48;0.20;86.50
55711;DHT22;41612;51.994;5.880;2022-12-10T11:27:26;0.20;86.50
55711;DHT22;41612;51.994;5.880;2022-12-10T11:30:03;0.30;86.40
55711;DHT22;41612;51.994;5.880;2022-12-10T11:41:15;0.40;86.30
55711;DHT22;41612;51.994;5.880;2022-12-10T11:49:32;0.50;85.80
55711;DHT22;41612;51.994;5.880;2022-12-10T11:52:40;0.60;85.80
55711;DHT22;41612;51.994;5.880;2022-12-10T12:00:26;0.50;85.60
55711;DHT22;41612;51.994;5.880;2022-12-10T12:03:36;0.50;85.70
55711;DHT22;41612;51.994;5.880;2022-12-10T12:11:31;0.30;86.20
55711;DHT22;41612;51.994;5.880;2022-12-10T12:14:16;0.40;86.20
55711;DHT22;41612;51.994;5.880;2022-12-10T12:17:09;0.40;86.10
55711;DHT22;41612;51.994;5.880;2022-12-10T12:19:49;0.30;86.10
55711;DHT22;41612;51.994;5.880;2022-12-10T12:22:42;0.30;86.10
55711;DHT22;41612;51.994;5.880;2022-12-10T12:25:26;0.30;86.20
55711;DHT22;41612;51.994;5.880;2022-12-10T12:28:40;0.40;86.20
55711;DHT22;41612;51.994;5.880;2022-12-10T12:30:50;0.50;86.10
55711;DHT22;41612;51.994;5.880;2022-12-10T12:33:35;0.50;86.00
55711;DHT22;41612;51.994;5.880;2022-12-10T12:36:26;0.60;85.90
55711;DHT22;41612;51.994;5.880;2022-12-10T12:39:01;0.50;85.70
55711;DHT22;41612;51.994;5.880;2022-12-10T12:46:47;0.40;86.10
55711;DHT22;41612;51.994;5.880;2022-12-10T12:49:22;0.40;86.20
55711;DHT22;41612;51.994;5.880;2022-12-10T12:52:05;0.40;86.30
55711;DHT22;41612;51.994;5.880;2022-12-10T12:54:36;0.40;86.30
55711;DHT22;41612;51.994;5.880;2022-12-10T12:57:25;0.40;86.30
55711;DHT22;41612;51.994;5.880;2022-12-10T13:05:21;0.50;86.20
55711;DHT22;41612;51.994;5.880;2022-12-10T13:08:24;0.50;86.30
55711;DHT22;41612;51.994;5.880;2022-12-10T13:13:38;0.50;86.10
55711;DHT22;41612;51.994;5.880;2022-12-10T13:24:43;0.40;86.10
55711;DHT22;41612;51.994;5.880;2022-12-10T13:27:15;0.50;86.20
55711;DHT22;41612;51.994;5.880;2022-12-10T13:46:50;0.60;86.30
55711;DHT22;41612;51.994;5.880;2022-12-10T13:49:18;0.60;86.20
55711;DHT22;41612;51.994;5.880;2022-12-10T13:52:06;0.60;86.20
55711;DHT22;41612;51.994;5.880;2022-12-10T13:57:37;0.50;86.30
55711;DHT22;41612;51.994;5.880;2022-12-10T14:00:20;0.50;86.30
55711;DHT22;41612;51.994;5.880;2022-12-10T14:08:04;0.50;86.30
55711;DHT22;41612;51.994;5.880;2022-12-10T14:10:35;0.50;86.30
55711;DHT22;41612;51.994;5.880;2022-12-10T14:13:04;0.60;86.30
55711;DHT22;41612;51.994;5.880;2022-12-10T14:15:36;0.50;86.30
55711;DHT22;41612;51.994;5.880;2022-12-10T14:18:14;0.50;86.30
55711;DHT22;41612;51.994;5.880;2022-12-10T14:20:49;0.50;86.30
55711;DHT22;41612;51.994;5.880;2022-12-10T14:26:09;0.70;86.20
55711;DHT22;41612;51.994;5.880;2022-12-10T14:28:43;0.60;86.10
55711;DHT22;41612;51.994;5.880;2022-12-10T14:31:14;0.50;86.20
55711;DHT22;41612;51.994;5.880;2022-12-10T14:33:44;0.50;86.20
55711;DHT22;41612;51.994;5.880;2022-12-10T14:36:26;0.40;86.30
55711;DHT22;41612;51.994;5.880;2022-12-10T14:38:55;0.30;86.50
55711;DHT22;41612;51.994;5.880;2022-12-10T14:41:30;0.20;86.70
55711;DHT22;41612;51.994;5.880;2022-12-10T14:44:01;0.20;87.00
55711;DHT22;41612;51.994;5.880;2022-12-10T14:46:33;0.20;87.20
55711;DHT22;41612;51.994;5.880;2022-12-10T14:48:59;0.20;87.20
55711;DHT22;41612;51.994;5.880;2022-12-10T14:51:32;0.20;87.20
55711;DHT22;41612;51.994;5.880;2022-12-10T14:53:58;0.20;87.10
55711;DHT22;41612;51.994;5.880;2022-12-10T14:56:32;0.30;87.10
55711;DHT22;41612;51.994;5.880;2022-12-10T15:01:37;0.30;87.00
55711;DHT22;41612;51.994;5.880;2022-12-10T15:04:06;0.30;86.90
55711;DHT22;41612;51.994;5.880;2022-12-10T15:06:36;0.30;87.00
55711;DHT22;41612;51.994;5.880;2022-12-10T15:09:04;0.30;86.90
55711;DHT22;41612;51.994;5.880;2022-12-10T15:11:31;0.40;87.00
55711;DHT22;41612;51.994;5.880;2022-12-10T15:13:59;0.40;86.90
55711;DHT22;41612;51.994;5.880;2022-12-10T15:16:41;0.40;86.90
55711;DHT22;41612;51.994;5.880;2022-12-10T15:19:16;0.30;86.90
55711;DHT22;41612;51.994;5.880;2022-12-10T15:21:44;0.30;87.00
55711;DHT22;41612;51.994;5.880;2022-12-10T15:24:17;0.30;87.00
55711;DHT22;41612;51.994;5.880;2022-12-10T15:26:50;0.30;87.10
55711;DHT22;41612;51.994;5.880;2022-12-10T15:31:49;0.40;87.20
55711;DHT22;41612;51.994;5.880;2022-12-10T15:34:15;0.40;87.00
55711;DHT22;41612;51.994;5.880;2022-12-10T15:36:47;0.40;86.90
55711;DHT22;41612;51.994;5.880;2022-12-10T15:39:21;0.30;87.10
55711;DHT22;41612;51.994;5.880;2022-12-10T15:41:56;0.30;87.20
55711;DHT22;41612;51.994;5.880;2022-12-10T15:46:58;0.30;87.30
55711;DHT22;41612;51.994;5.880;2022-12-10T15:49:25;0.30;87.40
55711;DHT22;41612;51.994;5.880;2022-12-10T15:51:54;0.30;87.40
55711;DHT22;41612;51.994;5.880;2022-12-10T15:54:39;0.30;87.40
55711;DHT22;41612;51.994;5.880;2022-12-10T16:00:22;0.40;87.40
55711;DHT22;41612;51.994;5.880;2022-12-10T16:05:29;0.40;87.30
55711;DHT22;41612;51.994;5.880;2022-12-10T16:08:03;0.50;87.20
55711;DHT22;41612;51.994;5.880;2022-12-10T16:10:32;0.40;87.10
55711;DHT22;41612;51.994;5.880;2022-12-10T16:13:02;0.40;87.00
55711;DHT22;41612;51.994;5.880;2022-12-10T16:15:31;0.50;87.00
55711;DHT22;41612;51.994;5.880;2022-12-10T16:18:04;0.50;87.00
55711;DHT22;41612;51.994;5.880;2022-12-10T16:20:32;0.50;87.00
55711;DHT22;41612;51.994;5.880;2022-12-10T16:23:00;0.50;87.00
55711;DHT22;41612;51.994;5.880;2022-12-10T16:25:29;0.50;87.00
55711;DHT22;41612;51.994;5.880;2022-12-10T16:27:56;0.50;87.10
55711;DHT22;41612;51.994;5.880;2022-12-10T16:30:39;0.50;87.10
55711;DHT22;41612;51.994;5.880;2022-12-10T16:33:06;0.50;87.10
55711;DHT22;41612;51.994;5.880;2022-12-10T16:35:33;0.60;87.00
55711;DHT22;41612;51.994;5.880;2022-12-10T16:37:59;0.60;86.90
55711;DHT22;41612;51.994;5.880;2022-12-10T16:40:27;0.60;86.90
55711;DHT22;41612;51.994;5.880;2022-12-10T16:42:56;0.70;86.90
55711;DHT22;41612;51.994;5.880;2022-12-10T16:45:38;0.70;86.90
55711;DHT22;41612;51.994;5.880;2022-12-10T16:48:08;0.70;86.80
55711;DHT22;41612;51.994;5.880;2022-12-10T16:50:34;0.70;86.70
55711;DHT22;41612;51.994;5.880;2022-12-10T16:53:18;0.70;86.70
55711;DHT22;41612;51.994;5.880;2022-12-10T16:55:45;0.70;86.60
55711;DHT22;41612;51.994;5.880;2022-12-10T16:58:12;0.70;86.70
55711;DHT22;41612;51.994;5.880;2022-12-10T17:00:41;0.70;86.80
55711;DHT22;41612;51.994;5.880;2022-12-10T17:03:10;0.70;86.70
55711;DHT22;41612;51.994;5.880;2022-12-10T17:06:01;0.80;86.60
55711;DHT22;41612;51.994;5.880;2022-12-10T17:08:29;0.80;86.60
55711;DHT22;41612;51.994;5.880;2022-12-10T17:10:56;0.80;86.40
55711;DHT22;41612;51.994;5.880;2022-12-10T17:13:42;0.80;86.40
55711;DHT22;41612;51.994;5.880;2022-12-10T17:16:13;0.80;86.50
55711;DHT22;41612;51.994;5.880;2022-12-10T17:18:40;0.80;86.50
55711;DHT22;41612;51.994;5.880;2022-12-10T17:21:06;0.80;86.50
55711;DHT22;41612;51.994;5.880;2022-12-10T17:23:32;0.80;86.40
55711;DHT22;41612;51.994;5.880;2022-12-10T17:25:58;0.80;86.50
55711;DHT22;41612;51.994;5.880;2022-12-10T17:28:26;0.80;86.50
55711;DHT22;41612;51.994;5.880;2022-12-10T17:30:52;0.80;86.60
55711;DHT22;41612;51.994;5.880;2022-12-10T17:33:22;0.70;86.60
55711;DHT22;41612;51.994;5.880;2022-12-10T17:35:50;0.70;86.70
55711;DHT22;41612;51.994;5.880;2022-12-10T17:38:24;0.70;86.70
55711;DHT22;41612;51.994;5.880;2022-12-10T17:40:51;0.70;86.80
55711;DHT22;41612;51.994;5.880;2022-12-10T17:43:17;0.70;86.90
55711;DHT22;41612;51.994;5.880;2022-12-10T17:45:44;0.70;87.00
55711;DHT22;41612;51.994;5.880;2022-12-10T17:48:13;0.70;87.00
55711;DHT22;41612;51.994;5.880;2022-12-10T17:50:39;0.70;87.00
55711;DHT22;41612;51.994;5.880;2022-12-10T17:53:06;0.60;87.00
55711;DHT22;41612;51.994;5.880;2022-12-10T17:55:36;0.60;87.10
55711;DHT22;41612;51.994;5.880;2022-12-10T17:58:02;0.50;87.20
55711;DHT22;41612;51.994;5.880;2022-12-10T18:00:34;0.50;87.30
55711;DHT22;41612;51.994;5.880;2022-12-10T18:03:00;0.50;87.30
55711;DHT22;41612;51.994;5.880;2022-12-10T18:05:26;0.50;87.40
55711;DHT22;41612;51.994;5.880;2022-12-10T18:07:53;0.50;87.40
55711;DHT22;41612;51.994;5.880;2022-12-10T18:10:25;0.50;87.40
55711;DHT22;41612;51.994;5.880;2022-12-10T18:12:51;0.50;87.50
55711;DHT22;41612;51.994;5.880;2022-12-10T18:15:19;0.50;87.40
55711;DHT22;41612;51.994;5.880;2022-12-10T18:17:46;0.50;87.40
55711;DHT22;41612;51.994;5.880;2022-12-10T18:22:51;0.60;87.40
55711;DHT22;41612;51.994;5.880;2022-12-10T18:25:17;0.60;87.30
55711;DHT22;41612;51.994;5.880;2022-12-10T18:27:43;0.60;87.30
55711;DHT22;41612;51.994;5.880;2022-12-10T18:30:13;0.60;87.20
55711;DHT22;41612;51.994;5.880;2022-12-10T18:32:39;0.70;87.30
55711;DHT22;41612;51.994;5.880;2022-12-10T18:35:05;0.70;87.30
55711;DHT22;41612;51.994;5.880;2022-12-10T18:37:31;0.70;87.10
55711;DHT22;41612;51.994;5.880;2022-12-10T18:39:56;0.70;87.20
55711;DHT22;41612;51.994;5.880;2022-12-10T18:42:22;0.60;87.20
55711;DHT22;41612;51.994;5.880;2022-12-10T18:44:48;0.60;87.20
55711;DHT22;41612;51.994;5.880;2022-12-10T18:47:17;0.60;87.10
55711;DHT22;41612;51.994;5.880;2022-12-10T18:49:43;0.70;87.00
55711;DHT22;41612;51.994;5.880;2022-12-10T18:52:08;0.60;87.10
55711;DHT22;41612;51.994;5.880;2022-12-10T18:54:34;0.60;87.20
55711;DHT22;41612;51.994;5.880;2022-12-10T18:57:00;0.60;87.10
55711;DHT22;41612;51.994;5.880;2022-12-10T18:59:26;0.60;87.10
55711;DHT22;41612;51.994;5.880;2022-12-10T19:01:51;0.70;87.10
55711;DHT22;41612;51.994;5.880;2022-12-10T19:04:17;0.70;87.00
55711;DHT22;41612;51.994;5.880;2022-12-10T19:06:43;0.70;87.00
55711;DHT22;41612;51.994;5.880;2022-12-10T19:09:17;0.70;86.90
55711;DHT22;41612;51.994;5.880;2022-12-10T19:11:43;0.70;87.00
55711;DHT22;41612;51.994;5.880;2022-12-10T19:14:13;0.70;87.00
55711;DHT22;41612;51.994;5.880;2022-12-10T19:16:38;0.60;87.10
55711;DHT22;41612;51.994;5.880;2022-12-10T19:19:05;0.70;87.20
55711;DHT22;41612;51.994;5.880;2022-12-10T19:21:32;0.70;87.20
55711;DHT22;41612;51.994;5.880;2022-12-10T19:23:58;0.80;87.10
55711;DHT22;41612;51.994;5.880;2022-12-10T19:26:33;0.80;87.00
55711;DHT22;41612;51.994;5.880;2022-12-10T19:29:02;0.70;87.00
55711;DHT22;41612;51.994;5.880;2022-12-10T19:31:29;0.70;87.00
55711;DHT22;41612;51.994;5.880;2022-12-10T19:33:57;0.70;87.00
55711;DHT22;41612;51.994;5.880;2022-12-10T19:36:25;0.70;87.00
55711;DHT22;41612;51.994;5.880;2022-12-10T19:38:52;0.70;87.00
55711;DHT22;41612;51.994;5.880;2022-12-10T19:41:19;0.70;87.00
55711;DHT22;41612;51.994;5.880;2022-12-10T19:43:45;0.80;87.00
55711;DHT22;41612;51.994;5.880;2022-12-10T19:46:24;0.80;86.90
55711;DHT22;41612;51.994;5.880;2022-12-10T19:48:57;0.80;86.80
55711;DHT22;41612;51.994;5.880;2022-12-10T19:51:23;0.80;86.80